Terminal Aerodrome Forecast
Issued by NWS

Home | Current Version | Previous Version | Text Only | Print | Product List | Glossary On
Versions: 1 2 3 4 5 6 7 8 9 10 11 12 13 14 15 16 17
000
FTUS44 KLIX 290600 AAA
TAFGPT
TAF AMD
KGPT 290641Z 2907/3006 36006KT P6SM BKN005 OVC080
     FM290900 01009KT P6SM OVC070
     FM291400 01007KT P6SM OVC008
     FM291700 36006KT P6SM BKN070=

USA.gov is the U.S. government's official web portal to all federal, state and local government web resources and services.